Time;durP1;ratioP1;P1;durP2;ratioP2;P2;SDS_P1;SDS_P2;PMS_P1;PMS_P2;Temp;Humidity;BMP_temperature;BMP_pressure;BME280_temperature;BME280_humidity;BME280_pressure;Samples;Min_cycle;Max_cycle;Signal;HPM_P1;HPM_P2
2022/04/15 00:00:49;;;;;;;1.10;1.00;;;12.40;76.90;;;;;;5017754;28;20039;-73
2022/04/15 00:03:14;;;;;;;1.88;1.23;;;12.30;77.00;;;;;;5051583;28;20138;-74
2022/04/15 00:05:40;;;;;;;1.35;0.90;;;12.30;77.10;;;;;;5015210;28;20073;-73
2022/04/15 00:08:06;;;;;;;2.30;1.02;;;12.30;77.20;;;;;;5024279;28;20048;-74
2022/04/15 00:10:32;;;;;;;1.45;1.23;;;12.30;77.30;;;;;;5002800;28;20057;-73
2022/04/15 00:12:58;;;;;;;0.82;0.82;;;12.30;77.30;;;;;;5019825;28;20041;-72
2022/04/15 00:15:24;;;;;;;2.05;1.23;;;12.30;77.20;;;;;;5014866;28;20096;-72
2022/04/15 00:17:50;;;;;;;1.63;1.08;;;12.30;77.20;;;;;;4993308;28;20060;-73
2022/04/15 00:20:15;;;;;;;3.47;1.30;;;12.20;77.20;;;;;;5014914;28;20049;-73
2022/04/15 00:22:41;;;;;;;2.33;0.90;;;12.20;77.30;;;;;;5059456;28;20053;-74
2022/04/15 00:25:07;;;;;;;1.80;1.20;;;12.20;77.50;;;;;;4997517;28;20066;-72
2022/04/15 00:27:34;;;;;;;1.30;1.00;;;12.20;77.50;;;;;;5014799;28;20044;-73
2022/04/15 00:29:59;;;;;;;1.52;0.90;;;12.20;77.40;;;;;;5027358;28;20033;-74
2022/04/15 00:32:26;;;;;;;1.65;0.98;;;12.20;77.30;;;;;;5040796;28;20032;-73
2022/04/15 00:34:52;;;;;;;2.17;1.20;;;12.20;77.40;;;;;;5021269;28;20037;-72
2022/04/15 00:37:18;;;;;;;2.53;1.33;;;12.20;77.40;;;;;;5041597;28;20048;-73
2022/04/15 00:39:45;;;;;;;2.35;1.30;;;12.30;77.40;;;;;;5020034;28;20056;-72
2022/04/15 00:42:11;;;;;;;1.50;1.10;;;12.20;77.40;;;;;;5021799;28;20122;-73
2022/04/15 00:44:38;;;;;;;5.10;1.45;;;12.20;77.50;;;;;;5023207;28;20037;-73
2022/04/15 00:47:19;;;;;;;3.55;1.20;;;12.20;77.40;;;;;;5017643;28;20044;-73
2022/04/15 00:49:44;;;;;;;3.22;1.10;;;12.20;77.80;;;;;;5009648;28;20036;-73
2022/04/15 00:52:10;;;;;;;1.23;1.13;;;12.20;77.50;;;;;;5017172;28;20068;-74
2022/04/15 00:54:36;;;;;;;2.22;1.20;;;12.10;77.60;;;;;;4974891;28;20546;-73
2022/04/15 00:57:02;;;;;;;1.42;0.98;;;12.10;77.60;;;;;;5036929;28;20029;-73
2022/04/15 00:59:27;;;;;;;1.25;1.05;;;12.00;77.50;;;;;;5027429;28;20029;-74
2022/04/15 01:01:53;;;;;;;3.72;1.40;;;12.00;77.60;;;;;;4985376;28;20045;-72
2022/04/15 01:04:18;;;;;;;5.03;1.10;;;12.00;77.70;;;;;;5033436;28;20070;-73
2022/04/15 01:06:46;;;;;;;2.78;1.15;;;12.00;77.90;;;;;;5014172;28;20104;-73
2022/04/15 01:09:12;;;;;;;1.60;1.33;;;12.00;77.90;;;;;;5006998;28;20622;-74
2022/04/15 01:11:37;;;;;;;4.18;1.42;;;12.00;77.90;;;;;;5010706;28;20120;-74
2022/04/15 01:14:03;;;;;;;6.35;1.77;;;12.00;77.90;;;;;;5001721;28;20029;-73
2022/04/15 01:16:29;;;;;;;2.95;1.60;;;11.90;77.90;;;;;;5020545;28;20120;-74
2022/04/15 01:18:54;;;;;;;4.20;2.22;;;11.90;77.90;;;;;;5053173;28;20029;-74
2022/04/15 01:21:21;;;;;;;3.45;1.63;;;11.80;77.90;;;;;;5028777;28;20046;-74
2022/04/15 01:23:47;;;;;;;2.13;1.50;;;11.80;77.90;;;;;;5018736;28;20044;-74
2022/04/15 01:26:16;;;;;;;1.52;1.27;;;11.80;78.00;;;;;;5039074;28;20139;-73
2022/04/15 01:28:42;;;;;;;3.05;1.27;;;11.70;78.00;;;;;;5036613;28;20041;-73
2022/04/15 01:31:07;;;;;;;1.80;1.35;;;11.70;78.00;;;;;;5019797;28;20602;-74
2022/04/15 01:33:33;;;;;;;2.85;1.35;;;11.60;78.00;;;;;;5029691;28;20769;-73
2022/04/15 01:35:58;;;;;;;1.70;1.20;;;11.60;78.10;;;;;;5018110;28;20602;-73
2022/04/15 01:38:24;;;;;;;7.55;2.22;;;11.60;78.20;;;;;;4996232;28;20060;-74
2022/04/15 01:40:50;;;;;;;3.97;1.40;;;11.50;78.10;;;;;;5022303;28;20481;-73
2022/04/15 01:43:15;;;;;;;1.67;1.30;;;11.40;78.00;;;;;;5053874;28;20060;-73
2022/04/15 01:45:41;;;;;;;5.15;1.50;;;11.40;78.10;;;;;;5065901;28;20056;-74
2022/04/15 01:48:07;;;;;;;4.43;1.75;;;11.30;78.20;;;;;;5024667;28;20128;-73
2022/04/15 01:50:32;;;;;;;1.92;1.50;;;11.30;78.40;;;;;;4995223;28;20056;-73
2022/04/15 01:52:58;;;;;;;3.50;1.48;;;11.10;78.40;;;;;;5025666;28;20040;-73
2022/04/15 01:55:24;;;;;;;3.38;1.80;;;11.10;78.70;;;;;;5014499;28;20040;-73
2022/04/15 01:57:49;;;;;;;4.35;1.70;;;11.00;78.70;;;;;;4979792;28;20055;-74
2022/04/15 02:00:15;;;;;;;3.03;1.48;;;11.00;78.90;;;;;;5029544;28;20045;-74
2022/04/15 02:02:41;;;;;;;2.40;1.45;;;11.00;79.00;;;;;;5050239;28;20032;-74
2022/04/15 02:05:07;;;;;;;5.50;1.63;;;10.90;79.10;;;;;;5026787;28;20021;-74
2022/04/15 02:07:32;;;;;;;2.90;1.60;;;10.90;79.10;;;;;;5030297;28;20075;-74
2022/04/15 02:09:58;;;;;;;2.03;1.60;;;11.00;79.20;;;;;;5037033;28;20123;-73
2022/04/15 02:12:23;;;;;;;1.85;1.60;;;11.00;79.20;;;;;;5054100;28;20039;-74
2022/04/15 02:14:49;;;;;;;4.32;1.55;;;10.90;79.10;;;;;;5018653;28;20481;-73
2022/04/15 02:17:14;;;;;;;4.45;1.45;;;10.90;79.10;;;;;;5010335;28;20040;-73
2022/04/15 02:19:40;;;;;;;3.00;1.45;;;10.90;79.10;;;;;;5033762;28;20525;-73
2022/04/15 02:22:06;;;;;;;4.47;1.73;;;10.90;79.10;;;;;;5054452;28;20025;-73
2022/04/15 02:24:31;;;;;;;2.80;1.80;;;10.90;79.00;;;;;;5046056;28;20142;-73
2022/04/15 02:26:57;;;;;;;1.30;1.20;;;10.90;79.00;;;;;;5024695;28;20044;-73
2022/04/15 02:29:22;;;;;;;3.28;1.55;;;10.90;79.80;;;;;;5017717;28;20041;-73
2022/04/15 02:31:48;;;;;;;2.50;1.80;;;10.90;79.10;;;;;;5035089;28;20030;-73
2022/04/15 02:34:13;;;;;;;6.15;1.70;;;10.80;78.90;;;;;;5026753;28;20162;-73
2022/04/15 02:36:39;;;;;;;5.80;2.00;;;10.80;79.00;;;;;;5059439;28;20738;-73
2022/04/15 02:39:05;;;;;;;2.08;1.75;;;10.70;79.10;;;;;;5038320;28;20404;-73
2022/04/15 02:41:30;;;;;;;4.30;1.75;;;10.70;79.20;;;;;;5035685;28;20737;-75
2022/04/15 02:43:56;;;;;;;3.13;1.63;;;10.70;79.40;;;;;;5019055;28;20020;-74
2022/04/15 02:46:21;;;;;;;1.65;1.50;;;10.60;79.30;;;;;;5028821;28;20108;-73
2022/04/15 02:48:47;;;;;;;3.78;2.10;;;10.60;79.40;;;;;;5018034;28;20583;-75
2022/04/15 02:51:14;;;;;;;2.10;1.90;;;10.50;79.40;;;;;;5045088;28;20382;-73
2022/04/15 02:53:39;;;;;;;3.38;1.77;;;10.40;79.50;;;;;;5046270;28;20044;-74
2022/04/15 02:56:05;;;;;;;2.38;1.73;;;10.40;79.70;;;;;;5037014;28;20037;-74
2022/04/15 02:58:30;;;;;;;2.97;1.73;;;10.40;79.80;;;;;;5003463;28;20036;-73
2022/04/15 03:00:56;;;;;;;4.65;1.70;;;10.30;79.80;;;;;;5019118;28;20048;-73
2022/04/15 03:03:21;;;;;;;3.42;1.65;;;10.30;79.80;;;;;;5028908;28;20233;-74
2022/04/15 03:05:47;;;;;;;2.92;1.73;;;10.30;79.80;;;;;;5037822;28;20068;-74
2022/04/15 03:08:12;;;;;;;4.95;1.65;;;10.30;79.80;;;;;;5035867;28;20033;-73
2022/04/15 03:10:38;;;;;;;3.70;1.52;;;10.30;79.80;;;;;;5016289;28;20068;-73
2022/04/15 03:13:04;;;;;;;2.42;1.85;;;10.30;79.80;;;;;;5012029;28;20024;-73
2022/04/15 03:15:29;;;;;;;3.70;1.90;;;10.30;79.80;;;;;;5055946;28;20036;-73
2022/04/15 03:17:55;;;;;;;3.28;1.63;;;10.30;79.70;;;;;;4996688;28;20048;-73
2022/04/15 03:20:21;;;;;;;2.08;1.70;;;10.20;79.60;;;;;;5022228;28;20025;-74
2022/04/15 03:22:46;;;;;;;2.25;1.65;;;10.20;79.70;;;;;;5001207;28;20041;-74
2022/04/15 03:25:15;;;;;;;3.53;1.80;;;10.10;79.80;;;;;;5030868;28;20115;-74
2022/04/15 03:27:40;;;;;;;4.90;1.98;;;10.10;80.00;;;;;;4972537;28;20401;-74
2022/04/15 03:30:06;;;;;;;3.40;1.65;;;10.00;80.00;;;;;;5032585;28;20036;-74
2022/04/15 03:32:31;;;;;;;3.25;1.60;;;10.00;80.00;;;;;;5025633;28;20060;-76
2022/04/15 03:34:57;;;;;;;2.22;1.65;;;10.00;81.00;;;;;;5027623;28;20047;-73
2022/04/15 03:37:23;;;;;;;2.17;1.98;;;9.90;80.00;;;;;;4993323;28;20083;-73
2022/04/15 03:39:48;;;;;;;1.63;1.40;;;9.90;80.20;;;;;;5035657;28;20032;-73
2022/04/15 03:42:14;;;;;;;4.47;2.20;;;9.80;80.20;;;;;;5012696;28;20036;-74
2022/04/15 03:44:39;;;;;;;3.90;2.13;;;9.80;80.30;;;;;;5020224;28;20040;-73
2022/04/15 03:47:05;;;;;;;2.92;1.60;;;9.80;80.50;;;;;;4986417;28;20025;-74
2022/04/15 03:49:31;;;;;;;2.55;1.90;;;9.80;80.60;;;;;;5035411;28;20032;-74
2022/04/15 03:51:56;;;;;;;3.78;1.65;;;9.80;80.60;;;;;;5025159;28;20039;-73
2022/04/15 03:54:22;;;;;;;2.35;1.77;;;9.70;80.60;;;;;;5027008;28;20036;-74
2022/04/15 03:56:47;;;;;;;3.08;1.75;;;9.70;80.60;;;;;;5006883;28;20103;-73
2022/04/15 03:59:13;;;;;;;2.15;1.80;;;9.70;80.70;;;;;;5047675;28;20059;-73
2022/04/15 04:01:39;;;;;;;4.32;1.60;;;9.70;80.60;;;;;;4980836;28;20037;-73
2022/04/15 04:04:05;;;;;;;2.88;1.83;;;9.70;80.60;;;;;;5044605;28;20055;-73
2022/04/15 04:06:30;;;;;;;2.38;1.90;;;9.70;80.60;;;;;;5021030;28;20123;-73
2022/04/15 04:08:56;;;;;;;2.60;2.08;;;9.70;80.60;;;;;;5024974;28;20036;-73
2022/04/15 04:11:21;;;;;;;3.42;2.03;;;9.70;80.60;;;;;;5014036;28;20029;-74
2022/04/15 04:13:47;;;;;;;2.55;1.55;;;9.70;80.60;;;;;;5016300;28;20052;-74
2022/04/15 04:16:12;;;;;;;7.88;2.25;;;9.70;80.60;;;;;;5001985;28;20173;-74
2022/04/15 04:18:42;;;;;;;7.50;2.10;;;9.70;80.60;;;;;;5049183;28;20052;-74
2022/04/15 04:21:07;;;;;;;2.47;2.10;;;9.60;80.60;;;;;;5033538;28;20036;-74
2022/04/15 04:23:33;;;;;;;3.20;1.95;;;9.60;80.50;;;;;;4992694;28;20036;-74
2022/04/15 04:25:59;;;;;;;5.40;2.00;;;9.60;80.50;;;;;;5055188;28;20048;-74
2022/04/15 04:28:25;;;;;;;3.83;1.80;;;9.60;80.50;;;;;;5033126;28;20029;-73
2022/04/15 04:30:52;;;;;;;3.95;1.85;;;9.60;80.50;;;;;;5027644;28;20034;-75
2022/04/15 04:33:18;;;;;;;3.80;2.05;;;9.60;80.50;;;;;;5020190;28;20037;-73
2022/04/15 04:35:43;;;;;;;3.25;2.20;;;9.50;80.40;;;;;;5030740;28;20655;-73
2022/04/15 04:38:09;;;;;;;3.00;1.70;;;9.50;80.40;;;;;;5023288;28;20048;-74
2022/04/15 04:40:34;;;;;;;2.60;1.90;;;9.40;80.40;;;;;;5032279;28;20064;-74
2022/04/15 04:43:00;;;;;;;1.98;1.70;;;9.40;80.50;;;;;;4934707;28;20052;-73
2022/04/15 04:45:26;;;;;;;2.22;1.70;;;9.30;80.50;;;;;;4967342;28;20060;-74
2022/04/15 04:47:52;;;;;;;1.90;1.80;;;9.30;80.60;;;;;;5009377;28;20041;-73
2022/04/15 04:50:18;;;;;;;2.58;1.80;;;9.20;80.70;;;;;;5028013;28;20037;-73
2022/04/15 04:52:46;;;;;;;2.00;1.80;;;9.20;80.80;;;;;;5001834;28;20025;-75
2022/04/15 04:55:12;;;;;;;3.83;2.35;;;9.20;81.00;;;;;;4988438;28;20044;-73
2022/04/15 04:57:42;;;;;;;3.65;1.98;;;9.20;81.10;;;;;;5003127;28;20037;-73
2022/04/15 05:00:09;;;;;;;3.63;1.80;;;9.10;81.10;;;;;;5024622;28;20146;-73
2022/04/15 05:02:34;;;;;;;5.15;2.55;;;9.10;81.10;;;;;;4995486;28;20033;-74
2022/04/15 05:05:00;;;;;;;2.60;2.20;;;9.10;81.20;;;;;;5048062;28;20516;-73
2022/04/15 05:07:26;;;;;;;2.28;1.85;;;9.10;81.20;;;;;;5012462;28;20088;-75
2022/04/15 05:09:51;;;;;;;2.10;1.90;;;9.10;81.30;;;;;;5047675;28;20145;-74
2022/04/15 05:12:17;;;;;;;3.88;1.90;;;9.20;81.40;;;;;;5006470;28;20029;-74
2022/04/15 05:14:43;;;;;;;3.40;2.38;;;9.10;81.30;;;;;;5005638;28;20041;-73
2022/04/15 05:17:08;;;;;;;4.97;3.08;;;9.20;81.40;;;;;;5034921;28;20766;-74
2022/04/15 05:19:34;;;;;;;3.58;2.75;;;9.20;81.40;;;;;;5001134;28;20025;-73
2022/04/15 05:21:59;;;;;;;3.60;3.03;;;9.20;81.30;;;;;;5022336;28;20452;-74
2022/04/15 05:24:25;;;;;;;3.67;2.70;;;9.20;81.30;;;;;;5023485;28;20024;-73
2022/04/15 05:26:50;;;;;;;2.83;2.42;;;9.20;81.20;;;;;;5009413;28;20024;-72
2022/04/15 05:29:16;;;;;;;2.63;2.20;;;9.20;81.20;;;;;;5019653;28;20029;-73
2022/04/15 05:31:42;;;;;;;2.92;2.22;;;9.20;81.30;;;;;;5006916;28;20071;-73
2022/04/15 05:34:08;;;;;;;5.20;2.53;;;9.20;81.30;;;;;;5032013;28;20083;-74
2022/04/15 05:36:33;;;;;;;3.33;3.03;;;9.20;81.40;;;;;;5026094;28;20044;-73
2022/04/15 05:38:59;;;;;;;5.53;3.92;;;9.20;81.40;;;;;;5044613;28;20036;-72
2022/04/15 05:41:25;;;;;;;5.30;3.20;;;9.20;81.40;;;;;;5028686;28;20124;-73
2022/04/15 05:43:50;;;;;;;2.90;2.42;;;9.30;81.60;;;;;;5036354;28;20067;-73
2022/04/15 05:46:16;;;;;;;3.33;2.72;;;9.30;81.60;;;;;;5011102;28;20037;-73
2022/04/15 05:48:41;;;;;;;4.72;2.40;;;9.30;81.50;;;;;;5021528;28;20045;-73
2022/04/15 05:51:07;;;;;;;4.95;2.42;;;9.30;81.50;;;;;;5029542;28;20056;-73
2022/04/15 05:53:32;;;;;;;12.05;5.85;;;9.40;81.50;;;;;;5037857;28;20041;-73
2022/04/15 05:55:58;;;;;;;9.07;5.40;;;9.40;81.50;;;;;;5017358;28;20449;-73
2022/04/15 05:58:27;;;;;;;12.85;6.63;;;9.50;81.50;;;;;;5025556;28;20544;-75
2022/04/15 06:00:52;;;;;;;10.98;5.15;;;9.50;81.40;;;;;;5022416;28;20037;-74
2022/04/15 06:03:20;;;;;;;13.55;6.15;;;9.60;81.40;;;;;;5021252;28;20099;-74
2022/04/15 06:05:46;;;;;;;8.27;4.82;;;9.60;81.40;;;;;;5030435;28;20063;-74
2022/04/15 06:08:12;;;;;;;9.68;5.00;;;9.70;81.60;;;;;;5040973;28;20505;-73
2022/04/15 06:10:37;;;;;;;9.52;4.50;;;9.70;81.60;;;;;;5025492;28;20069;-74
2022/04/15 06:13:09;;;;;;;7.70;4.55;;;9.80;81.70;;;;;;5027633;28;20056;-74
2022/04/15 06:15:36;;;;;;;10.15;4.47;;;9.80;81.60;;;;;;5037754;28;20045;-73
2022/04/15 06:18:02;;;;;;;9.35;5.55;;;9.90;81.60;;;;;;5031977;28;20029;-75
2022/04/15 06:20:28;;;;;;;12.88;4.57;;;10.00;81.70;;;;;;5051436;28;20049;-73
2022/04/15 06:22:53;;;;;;;7.88;4.57;;;10.10;81.70;;;;;;5030397;28;20072;-73
2022/04/15 06:25:19;;;;;;;5.63;3.65;;;10.10;81.70;;;;;;5045600;28;20032;-74
2022/04/15 06:27:45;;;;;;;9.20;3.50;;;10.20;81.60;;;;;;5037409;28;20756;-74
2022/04/15 06:30:10;;;;;;;5.47;3.00;;;10.30;81.60;;;;;;5006361;28;20082;-73
2022/04/15 06:32:36;;;;;;;5.57;3.05;;;10.40;81.70;;;;;;5043901;28;20111;-72
2022/04/15 06:35:03;;;;;;;6.03;3.30;;;10.50;81.70;;;;;;5034573;28;20556;-73
2022/04/15 06:37:28;;;;;;;5.50;3.40;;;10.60;81.70;;;;;;5029587;28;20491;-74
2022/04/15 06:39:54;;;;;;;3.97;3.03;;;10.60;81.70;;;;;;5035988;28;20025;-73
2022/04/15 06:42:25;;;;;;;7.45;4.68;;;10.70;81.60;;;;;;5031752;28;20236;-72
2022/04/15 06:44:51;;;;;;;9.70;5.32;;;10.90;81.70;;;;;;5051327;28;20029;-73
2022/04/15 06:47:17;;;;;;;6.75;4.43;;;11.00;81.50;;;;;;5023073;28;20035;-72
2022/04/15 06:49:43;;;;;;;5.82;4.13;;;11.10;81.40;;;;;;5005573;28;20040;-74
2022/04/15 06:52:09;;;;;;;11.90;4.93;;;11.20;81.50;;;;;;5047964;28;20097;-73
2022/04/15 06:54:34;;;;;;;10.70;4.60;;;11.30;81.40;;;;;;5025347;28;20061;-73
2022/04/15 06:57:00;;;;;;;12.35;4.97;;;11.40;81.30;;;;;;5023046;28;20087;-73
2022/04/15 06:59:25;;;;;;;9.10;4.30;;;11.50;81.30;;;;;;5028015;28;20032;-70
2022/04/15 07:01:51;;;;;;;19.77;7.32;;;11.60;81.30;;;;;;5043182;28;20036;-72
2022/04/15 07:04:16;;;;;;;9.60;4.13;;;11.80;81.20;;;;;;5012746;28;20040;-72
2022/04/15 07:06:43;;;;;;;10.93;5.45;;;11.90;81.10;;;;;;5032720;28;20029;-71
2022/04/15 07:09:08;;;;;;;13.55;5.68;;;12.00;80.90;;;;;;5042410;28;20159;-71
2022/04/15 07:11:34;;;;;;;10.20;5.20;;;12.20;80.90;;;;;;5022291;28;20123;-71
2022/04/15 07:13:59;;;;;;;12.98;5.18;;;12.30;80.70;;;;;;5022284;28;20127;-72
2022/04/15 07:16:25;;;;;;;19.63;7.05;;;12.40;80.60;;;;;;5059546;28;20037;-74
2022/04/15 07:18:52;;;;;;;14.20;6.28;;;12.60;80.50;;;;;;5026587;28;20405;-75
2022/04/15 07:21:18;;;;;;;10.25;4.43;;;12.70;80.40;;;;;;5028938;28;20024;-72
2022/04/15 07:23:44;;;;;;;11.55;5.30;;;12.90;80.20;;;;;;5028774;28;20040;-71
2022/04/15 07:26:10;;;;;;;14.15;5.75;;;13.10;80.00;;;;;;5027021;28;20033;-72
2022/04/15 07:28:35;;;;;;;13.40;4.80;;;13.20;79.60;;;;;;5015210;28;20070;-74
2022/04/15 07:31:01;;;;;;;12.73;6.07;;;13.30;79.40;;;;;;5026389;28;20573;-77
2022/04/15 07:33:27;;;;;;;17.45;6.30;;;13.40;79.10;;;;;;5031019;28;20044;-70
2022/04/15 07:35:52;;;;;;;9.63;4.78;;;13.50;78.90;;;;;;5044093;28;20043;-71
2022/04/15 07:38:18;;;;;;;23.17;7.88;;;13.60;78.60;;;;;;5060632;28;20460;-72
2022/04/15 07:40:43;;;;;;;18.33;7.53;;;13.70;78.40;;;;;;5024989;28;20382;-71
2022/04/15 07:43:09;;;;;;;10.95;6.43;;;13.90;78.30;;;;;;5035163;28;20765;-71
2022/04/15 07:45:34;;;;;;;31.20;9.13;;;14.00;78.00;;;;;;5042225;28;20130;-71
2022/04/15 07:48:00;;;;;;;28.40;9.02;;;14.20;77.70;;;;;;5028225;28;20037;-72
2022/04/15 07:50:26;;;;;;;109.63;27.88;;;14.40;77.50;;;;;;5044549;28;20091;-71
2022/04/15 07:52:57;;;;;;;81.65;18.88;;;14.50;77.10;;;;;;5040868;28;20032;-71
2022/04/15 07:55:23;;;;;;;46.83;14.40;;;14.70;76.80;;;;;;5020130;28;20042;-71
2022/04/15 07:57:48;;;;;;;69.95;17.50;;;14.90;76.40;;;;;;5051620;28;20132;-71
2022/04/15 08:00:14;;;;;;;16.30;6.55;;;15.00;76.00;;;;;;5035673;28;20090;-72
2022/04/15 08:02:40;;;;;;;16.23;6.45;;;15.20;75.60;;;;;;5026341;28;20067;-71
2022/04/15 08:05:06;;;;;;;7.80;4.75;;;15.40;75.20;;;;;;5030306;28;20040;-71
2022/04/15 08:07:32;;;;;;;8.65;4.53;;;15.60;74.70;;;;;;5015873;28;20044;-71
2022/04/15 08:09:57;;;;;;;6.22;3.85;;;15.70;74.20;;;;;;4995390;28;20113;-73
2022/04/15 08:12:23;;;;;;;6.40;4.57;;;16.00;73.80;;;;;;5013956;28;20047;-72
2022/04/15 08:14:48;;;;;;;5.70;4.00;;;16.10;73.30;;;;;;5035638;28;20647;-72
2022/04/15 08:17:14;;;;;;;5.97;3.67;;;16.30;72.50;;;;;;5034124;28;23268;-78
2022/04/15 08:19:40;;;;;;;6.03;4.13;;;16.40;72.10;;;;;;5044462;28;20096;-76
2022/04/15 08:22:09;;;;;;;6.03;3.58;;;16.60;71.60;;;;;;5052643;28;20073;-76
2022/04/15 08:24:39;;;;;;;3.45;3.15;;;16.80;71.20;;;;;;5062207;28;20025;-76
2022/04/15 08:27:05;;;;;;;4.88;3.33;;;16.90;70.40;;;;;;5032483;28;20028;-78
2022/04/15 08:29:30;;;;;;;4.00;3.10;;;17.20;70.10;;;;;;5049149;28;20035;-75
2022/04/15 08:31:56;;;;;;;5.30;2.70;;;17.30;69.50;;;;;;5075517;28;20039;-76
2022/04/15 08:34:21;;;;;;;5.30;3.58;;;17.50;69.20;;;;;;5045891;28;20039;-77
2022/04/15 08:36:47;;;;;;;5.63;3.20;;;17.70;68.50;;;;;;5041236;28;20044;-77
2022/04/15 08:39:12;;;;;;;4.43;2.65;;;17.80;67.90;;;;;;5057236;28;20033;-77
2022/04/15 08:41:41;;;;;;;4.65;2.47;;;18.00;67.40;;;;;;5045426;28;20316;-76
2022/04/15 08:44:07;;;;;;;4.88;2.97;;;18.20;67.00;;;;;;5052200;28;20035;-76
2022/04/15 08:46:32;;;;;;;5.35;3.25;;;18.40;66.50;;;;;;5026383;28;20057;-77
2022/04/15 08:48:58;;;;;;;9.43;3.42;;;18.60;66.00;;;;;;5037682;28;20054;-77
2022/04/15 08:51:23;;;;;;;4.82;3.25;;;18.80;65.50;;;;;;5024533;28;20055;-77
2022/04/15 08:53:52;;;;;;;2.40;2.15;;;18.90;64.80;;;;;;5033817;28;20045;-77
2022/04/15 08:56:19;;;;;;;4.13;2.15;;;19.10;64.40;;;;;;5013896;28;20033;-77
2022/04/15 08:58:45;;;;;;;3.75;2.60;;;19.30;64.00;;;;;;5046663;28;20041;-77
2022/04/15 09:01:11;;;;;;;4.30;2.65;;;19.50;63.60;;;;;;5006443;28;20044;-77
2022/04/15 09:03:36;;;;;;;4.85;2.33;;;19.70;63.00;;;;;;5043910;28;20029;-77
2022/04/15 09:06:02;;;;;;;4.05;2.50;;;19.90;62.50;;;;;;5051668;28;20052;-77
2022/04/15 09:08:27;;;;;;;4.93;2.33;;;20.10;62.00;;;;;;5076918;28;20033;-78
2022/04/15 09:10:56;;;;;;;2.75;1.70;;;20.30;61.50;;;;;;5040279;28;20213;-76
2022/04/15 09:13:23;;;;;;;2.67;1.60;;;20.50;60.60;;;;;;5041909;28;20056;-77
2022/04/15 09:15:48;;;;;;;2.00;1.42;;;20.70;60.30;;;;;;5037766;28;20420;-77
2022/04/15 09:18:36;;;;;;;2.10;1.20;;;20.80;59.70;;;;;;5056199;28;21324;-76
2022/04/15 09:21:28;;;;;;;1.40;0.95;;;21.10;57.80;;;;;;5024954;28;20036;-77
2022/04/15 09:23:55;;;;;;;2.30;1.27;;;21.30;57.60;;;;;;5062692;28;20103;-77
2022/04/15 09:26:21;;;;;;;1.95;1.15;;;21.40;58.50;;;;;;5055842;28;20056;-77
2022/04/15 09:28:48;;;;;;;1.67;1.17;;;21.50;57.50;;;;;;5003920;28;20028;-77
2022/04/15 09:31:14;;;;;;;3.47;1.23;;;21.60;57.00;;;;;;5021182;28;20617;-77
2022/04/15 09:33:56;;;;;;;1.50;0.90;;;21.60;56.70;;;;;;5054558;28;20128;-76
2022/04/15 09:36:26;;;;;;;1.73;0.88;;;21.80;56.00;;;;;;5038022;28;20095;-76
2022/04/15 09:38:59;;;;;;;1.77;1.10;;;22.00;56.30;;;;;;5048457;28;20116;-77
2022/04/15 09:41:25;;;;;;;10.27;1.50;;;22.10;55.40;;;;;;5035787;28;20068;-77
2022/04/15 09:43:54;;;;;;;3.72;1.02;;;22.20;55.60;;;;;;5028066;28;20033;-76
2022/04/15 09:46:20;;;;;;;1.83;1.13;;;22.20;55.20;;;;;;5034133;28;20065;-77
2022/04/15 09:49:04;;;;;;;1.38;0.77;;;22.20;55.00;;;;;;5021611;28;20061;-77
2022/04/15 09:51:34;;;;;;;2.10;0.45;;;22.30;53.30;;;;;;5033177;28;20071;-78
2022/04/15 09:54:20;;;;;;;0.60;0.40;;;22.30;54.10;;;;;;5034987;28;20033;-78
2022/04/15 09:56:46;;;;;;;0.63;0.50;;;22.40;53.30;;;;;;5031968;28;20287;-77
2022/04/15 09:59:13;;;;;;;1.48;0.40;;;22.40;53.70;;;;;;5015900;28;20029;-77
2022/04/15 10:01:42;;;;;;;0.45;0.20;;;22.60;53.60;;;;;;5001353;28;20036;-77
2022/04/15 10:04:08;;;;;;;0.50;0.30;;;22.70;52.80;;;;;;5029949;28;20138;-78
2022/04/15 10:06:33;;;;;;;0.13;0.13;;;22.80;52.30;;;;;;5031169;28;20677;-78
2022/04/15 10:09:02;;;;;;;1.25;0.20;;;22.90;51.80;;;;;;5016440;28;20037;-77
2022/04/15 10:11:28;;;;;;;1.85;0.40;;;23.10;51.50;;;;;;5016681;28;20063;-77
2022/04/15 10:13:54;;;;;;;3.00;0.50;;;23.30;50.90;;;;;;5024684;28;20087;-78
2022/04/15 10:16:21;;;;;;;0.47;0.32;;;23.50;50.50;;;;;;5008597;28;20033;-79
2022/04/15 10:18:46;;;;;;;0.70;0.30;;;23.70;50.60;;;;;;5063177;28;20382;-77
2022/04/15 10:21:12;;;;;;;2.00;0.35;;;23.80;49.40;;;;;;5055060;28;20037;-77
2022/04/15 10:23:37;;;;;;;0.82;0.30;;;23.90;49.00;;;;;;5046139;28;20409;-76
2022/04/15 10:26:03;;;;;;;1.20;0.40;;;24.10;48.70;;;;;;5047081;28;20116;-78
2022/04/15 10:28:48;;;;;;;1.73;0.40;;;24.20;48.30;;;;;;5021941;28;20489;-78
2022/04/15 10:31:17;;;;;;;1.00;0.40;;;24.30;46.70;;;;;;5037065;28;20048;-76
2022/04/15 10:33:51;;;;;;;0.95;0.60;;;24.50;47.50;;;;;;5025287;28;20043;-77
2022/04/15 10:36:21;;;;;;;1.98;0.77;;;24.70;47.00;;;;;;5011558;28;20100;-78
2022/04/15 10:39:11;;;;;;;0.93;0.60;;;24.80;46.90;;;;;;5043140;28;20029;-78
2022/04/15 10:41:51;;;;;;;2.58;0.60;;;24.80;45.30;;;;;;5034885;28;20040;-77
2022/04/15 10:44:33;;;;;;;1.95;0.60;;;24.90;46.30;;;;;;5037789;28;20047;-77
2022/04/15 10:47:11;;;;;;;1.13;0.50;;;25.00;45.40;;;;;;5028016;28;20595;-78
2022/04/15 10:49:54;;;;;;;0.90;0.40;;;25.20;45.30;;;;;;5047779;28;20040;-76
2022/04/15 10:52:24;;;;;;;1.40;0.40;;;25.30;46.00;;;;;;5005025;28;20048;-78
2022/04/15 10:55:04;;;;;;;1.13;0.30;;;25.40;45.60;;;;;;5047410;28;20131;-71
2022/04/15 10:57:31;;;;;;;1.23;0.73;;;25.40;44.30;;;;;;5031644;28;20033;-77
2022/04/15 11:02:43;;;;;;;1.02;0.50;;;25.40;45.10;;;;;;5058103;28;20119;-76
2022/04/15 11:05:13;;;;;;;1.67;0.55;;;25.50;44.90;;;;;;5017276;28;20037;-77
2022/04/15 11:07:50;;;;;;;2.00;0.60;;;25.60;44.70;;;;;;5042166;28;20029;-76
2022/04/15 11:10:42;;;;;;;1.02;0.40;;;25.70;43.50;;;;;;5050241;28;20048;-77
2022/04/15 11:13:28;;;;;;;1.13;0.52;;;25.80;43.00;;;;;;5035097;28;20028;-76
2022/04/15 11:16:01;;;;;;;1.02;0.40;;;25.90;42.40;;;;;;5047517;28;20037;-77
2022/04/15 11:18:52;;;;;;;1.98;0.45;;;26.00;43.20;;;;;;5046494;28;20036;-78
2022/04/15 11:21:21;;;;;;;1.65;0.60;;;26.10;42.20;;;;;;5033418;28;20152;-77
2022/04/15 11:23:49;;;;;;;2.58;0.70;;;26.20;42.90;;;;;;5014941;28;20067;-77
2022/04/15 11:26:15;;;;;;;1.25;0.50;;;26.30;42.90;;;;;;5019064;28;20049;-77
2022/04/15 11:28:43;;;;;;;2.40;0.50;;;26.40;42.80;;;;;;5036547;28;20120;-77
2022/04/15 11:31:22;;;;;;;1.48;1.00;;;26.50;42.80;;;;;;5046647;28;20037;-77
2022/04/15 11:33:48;;;;;;;2.00;0.98;;;26.50;41.60;;;;;;5008703;28;20121;-79
2022/04/15 11:36:14;;;;;;;1.15;0.73;;;26.40;42.20;;;;;;5048076;28;20126;-76
2022/04/15 11:38:40;;;;;;;2.63;0.70;;;26.40;42.20;;;;;;5071291;28;20028;-76
2022/04/15 11:41:05;;;;;;;1.40;0.50;;;26.30;42.00;;;;;;5020065;28;20032;-76
2022/04/15 11:43:31;;;;;;;1.50;0.60;;;26.20;41.90;;;;;;5020669;28;20119;-76
2022/04/15 11:45:56;;;;;;;1.65;0.70;;;26.20;42.00;;;;;;5044530;28;20116;-78
2022/04/15 11:48:25;;;;;;;1.17;0.90;;;26.20;42.00;;;;;;5044952;28;20113;-76
2022/04/15 11:50:53;;;;;;;1.40;0.60;;;26.30;42.00;;;;;;5035514;28;20041;-77
2022/04/15 11:53:19;;;;;;;1.83;0.98;;;26.30;41.70;;;;;;5010290;28;20040;-77
2022/04/15 11:55:55;;;;;;;1.10;0.73;;;26.30;41.50;;;;;;5013706;28;20040;-77
2022/04/15 11:58:22;;;;;;;1.67;1.05;;;26.30;41.10;;;;;;5000443;28;20033;-77
2022/04/15 12:00:55;;;;;;;0.95;0.70;;;26.30;41.60;;;;;;5019323;28;20027;-77
2022/04/15 12:03:21;;;;;;;1.05;0.63;;;26.30;41.00;;;;;;5041935;28;20037;-77
2022/04/15 12:05:47;;;;;;;1.27;0.60;;;26.20;40.90;;;;;;5042587;28;20036;-77
2022/04/15 12:08:15;;;;;;;1.05;0.60;;;26.20;40.80;;;;;;5025041;28;20029;-77
2022/04/15 12:10:41;;;;;;;0.82;0.63;;;26.20;40.80;;;;;;5002450;28;20033;-76
2022/04/15 12:13:06;;;;;;;1.48;0.75;;;26.30;40.50;;;;;;5057827;28;20090;-77
2022/04/15 12:15:32;;;;;;;2.17;0.90;;;26.10;40.30;;;;;;4992682;28;20118;-77
2022/04/15 12:17:58;;;;;;;2.63;0.70;;;26.00;40.20;;;;;;5030430;28;20494;-77
2022/04/15 12:20:24;;;;;;;0.95;0.60;;;25.80;40.10;;;;;;5014443;28;20119;-76
2022/04/15 12:22:49;;;;;;;1.33;0.63;;;25.70;40.20;;;;;;5030258;28;20041;-77
2022/04/15 12:25:18;;;;;;;2.35;0.50;;;25.70;40.30;;;;;;5030306;28;20049;-77
2022/04/15 12:27:47;;;;;;;1.90;0.70;;;25.70;40.20;;;;;;5029011;28;20416;-77
2022/04/15 12:30:14;;;;;;;1.25;0.75;;;25.70;40.20;;;;;;4993108;28;20088;-77
2022/04/15 12:32:39;;;;;;;2.00;0.75;;;25.80;40.30;;;;;;5034131;28;20116;-77
2022/04/15 12:35:09;;;;;;;0.60;0.60;;;25.80;40.90;;;;;;5029643;28;20465;-77
2022/04/15 12:37:39;;;;;;;1.02;0.55;;;25.80;39.90;;;;;;5021403;28;20037;-77
2022/04/15 12:40:06;;;;;;;1.60;0.60;;;25.90;39.80;;;;;;4998739;28;20036;-76
2022/04/15 12:42:32;;;;;;;1.00;0.68;;;25.90;39.70;;;;;;5062469;28;20349;-76
2022/04/15 12:44:58;;;;;;;0.80;0.63;;;25.80;39.70;;;;;;5046856;28;20040;-77
2022/04/15 12:47:26;;;;;;;0.80;0.30;;;25.90;39.70;;;;;;5010986;28;20043;-77
2022/04/15 12:49:51;;;;;;;0.52;0.50;;;26.10;39.70;;;;;;5015273;28;20433;-77